createdAt,value
2023-11-05T00:03:01.936Z,1.47
2023-11-05T00:07:07.601Z,1.47
2023-11-05T00:11:13.422Z,1.43
2023-11-05T00:15:19.002Z,1.20
2023-11-05T00:19:24.592Z,1.33
2023-11-05T00:23:31.515Z,1.30
2023-11-05T00:27:38.073Z,1.40
2023-11-05T00:31:44.171Z,1.10
2023-11-05T00:35:49.770Z,1.10
2023-11-05T00:39:55.334Z,0.97
2023-11-05T00:44:00.889Z,1.50
2023-11-05T00:48:06.642Z,1.47
2023-11-05T00:52:12.258Z,1.10
2023-11-05T00:56:17.983Z,2.30
2023-11-05T01:00:27.336Z,1.70
2023-11-05T01:04:33.516Z,1.20
2023-11-05T01:08:39.108Z,1.27
2023-11-05T01:12:44.842Z,1.40
2023-11-05T01:16:50.392Z,1.10
2023-11-05T01:20:57.402Z,1.30
2023-11-05T01:25:03.210Z,1.30
2023-11-05T01:29:08.854Z,1.37
2023-11-05T01:33:14.512Z,1.10
2023-11-05T01:37:20.160Z,1.40
2023-11-05T01:41:25.902Z,1.30
2023-11-05T01:45:31.576Z,1.00
2023-11-05T01:49:38.661Z,1.10
2023-11-05T01:53:47.174Z,1.07
2023-11-05T01:57:54.672Z,1.17
2023-11-05T02:02:02.504Z,1.13
2023-11-05T02:06:08.948Z,1.03
2023-11-05T02:10:14.552Z,1.23
2023-11-05T02:14:21.653Z,0.90
2023-11-05T02:18:27.251Z,1.20
2023-11-05T02:22:35.016Z,1.00
2023-11-05T02:26:40.677Z,1.27
2023-11-05T02:30:46.304Z,1.40
2023-11-05T02:34:52.027Z,1.13
2023-11-05T02:38:57.656Z,1.40
2023-11-05T02:43:03.395Z,1.00
2023-11-05T02:47:09.067Z,1.03
2023-11-05T02:51:14.613Z,1.20
2023-11-05T02:55:20.125Z,1.00
2023-11-05T02:59:27.404Z,1.20
2023-11-05T03:03:33.285Z,1.10
2023-11-05T03:07:38.873Z,1.20
2023-11-05T03:11:46.758Z,1.37
2023-11-05T03:15:52.343Z,1.20
2023-11-05T03:19:57.884Z,1.20
2023-11-05T03:24:04.345Z,1.20
2023-11-05T03:28:09.936Z,1.13
2023-11-05T03:32:16.189Z,1.00
2023-11-05T03:36:21.993Z,1.37
2023-11-05T03:40:27.672Z,1.00
2023-11-05T03:44:33.313Z,1.20
2023-11-05T03:48:38.894Z,1.00
2023-11-05T03:52:44.473Z,1.30
2023-11-05T03:56:50.029Z,1.00
2023-11-05T04:00:55.770Z,1.20
2023-11-05T04:05:01.356Z,1.10
2023-11-05T04:09:07.033Z,1.30
2023-11-05T04:13:12.620Z,1.17
2023-11-05T04:17:18.199Z,1.20
2023-11-05T04:21:23.967Z,1.20
2023-11-05T04:25:29.578Z,1.37
2023-11-05T04:29:36.567Z,1.30
2023-11-05T04:33:42.359Z,1.40
2023-11-05T04:37:47.885Z,1.17
2023-11-05T04:41:54.980Z,1.40
2023-11-05T04:46:00.888Z,1.20
2023-11-05T04:50:06.564Z,1.10
2023-11-05T04:54:12.111Z,1.33
2023-11-05T04:58:17.761Z,1.30
2023-11-05T05:02:23.356Z,1.27
2023-11-05T05:06:28.889Z,1.30
2023-11-05T05:10:34.590Z,1.10
2023-11-05T05:14:40.254Z,1.53
2023-11-05T05:18:46.234Z,1.40
2023-11-05T05:22:52.641Z,1.60
2023-11-05T05:26:58.281Z,1.30
2023-11-05T05:31:03.973Z,1.40
2023-11-05T05:35:09.658Z,1.30
2023-11-05T05:39:15.428Z,1.40
2023-11-05T05:43:20.994Z,1.13
2023-11-05T05:47:26.551Z,1.40
2023-11-05T05:51:32.921Z,1.10
2023-11-05T05:55:41.922Z,1.17
2023-11-05T05:59:48.161Z,1.60
2023-11-05T06:03:53.831Z,1.20
2023-11-05T06:07:59.438Z,1.70
2023-11-05T06:12:06.243Z,1.30
2023-11-05T06:16:12.272Z,1.37
2023-11-05T06:20:17.918Z,1.13
2023-11-05T06:24:23.497Z,1.50
2023-11-05T06:28:29.091Z,1.20
2023-11-05T06:32:35.113Z,1.10
2023-11-05T06:37:01.082Z,1.10
2023-11-05T06:41:06.660Z,1.40
2023-11-05T06:45:12.199Z,1.50
2023-11-05T06:49:17.896Z,1.37
2023-11-05T06:53:23.873Z,1.30
2023-11-05T06:57:29.460Z,1.73
2023-11-05T07:01:35.508Z,1.30
2023-11-05T07:05:41.261Z,1.20
2023-11-05T07:09:49.245Z,1.40
2023-11-05T07:13:55.168Z,1.20
2023-11-05T07:18:00.749Z,1.50
2023-11-05T07:22:06.421Z,1.57
2023-11-05T07:26:15.256Z,1.53
2023-11-05T07:30:20.825Z,1.60
2023-11-05T07:34:29.540Z,1.40
2023-11-05T07:38:35.091Z,1.37
2023-11-05T07:42:42.711Z,1.40
2023-11-05T07:46:48.353Z,1.60
2023-11-05T07:50:53.951Z,1.10
2023-11-05T07:55:00.699Z,1.47
2023-11-05T07:59:06.583Z,1.40
2023-11-05T08:03:12.130Z,1.63
2023-11-05T08:07:17.720Z,1.23
2023-11-05T08:11:23.386Z,1.33
2023-11-05T08:15:28.873Z,1.27
2023-11-05T08:19:34.525Z,1.10
2023-11-05T08:23:40.363Z,1.33
2023-11-05T08:27:45.850Z,1.30
2023-11-05T08:31:51.485Z,1.10
2023-11-05T08:35:56.984Z,1.50
2023-11-05T08:40:03.822Z,1.50
2023-11-05T08:44:09.402Z,1.57
2023-11-05T08:48:15.029Z,1.30
2023-11-05T08:52:22.195Z,1.43
2023-11-05T08:56:28.305Z,1.50
2023-11-05T09:00:36.850Z,1.80
2023-11-05T09:04:42.669Z,2.80
2023-11-05T09:08:48.479Z,2.13
2023-11-05T09:12:55.754Z,1.50
2023-11-05T09:17:01.419Z,1.00
2023-11-05T09:21:07.080Z,1.40
2023-11-05T09:25:12.641Z,1.50
2023-11-05T09:29:19.330Z,1.50
2023-11-05T09:33:24.891Z,1.30
2023-11-05T09:37:30.990Z,1.30
2023-11-05T09:41:39.480Z,1.00
2023-11-05T09:45:52.291Z,1.00
2023-11-05T09:49:57.830Z,1.03
2023-11-05T09:54:03.459Z,1.20
2023-11-05T09:58:14.426Z,1.10
2023-11-05T10:02:19.974Z,1.17
2023-11-05T10:06:25.473Z,1.13
2023-11-05T10:10:31.078Z,1.10
2023-11-05T10:14:37.327Z,1.37
2023-11-05T10:18:45.194Z,1.20
2023-11-05T10:23:05.726Z,0.83
2023-11-05T10:27:11.280Z,0.97
2023-11-05T10:31:16.908Z,0.80
2023-11-05T10:35:28.865Z,0.90
2023-11-05T10:39:34.784Z,1.00
2023-11-05T10:43:40.920Z,1.00
2023-11-05T10:47:47.506Z,1.10
2023-11-05T10:51:53.763Z,1.13
2023-11-05T10:55:59.708Z,0.80
2023-11-05T11:04:19.510Z,0.90
2023-11-05T11:12:35.356Z,1.00
2023-11-05T11:16:44.345Z,0.90
2023-11-05T11:20:55.753Z,0.90
2023-11-05T11:25:04.364Z,0.77
2023-11-05T11:29:12.440Z,0.97
2023-11-05T11:33:23.101Z,1.13
2023-11-05T11:37:29.043Z,1.23
2023-11-05T11:41:38.802Z,0.87
2023-11-05T11:45:44.533Z,1.07
2023-11-05T11:49:50.258Z,1.00
2023-11-05T11:53:56.003Z,0.83
2023-11-05T12:14:29.235Z,0.90
2023-11-05T12:18:35.560Z,1.20
2023-11-05T12:22:47.616Z,1.00
2023-11-05T12:26:54.485Z,0.83
2023-11-05T12:31:04.984Z,0.80
2023-11-05T12:35:12.233Z,1.00
2023-11-05T12:39:17.796Z,0.80
2023-11-05T14:50:36.185Z,2.10
2023-11-05T14:54:41.760Z,1.77
2023-11-05T14:58:48.014Z,2.10
2023-11-05T15:02:53.729Z,2.20
2023-11-05T15:06:59.321Z,2.00
2023-11-05T15:11:05.498Z,2.00
2023-11-05T15:15:11.256Z,2.03
2023-11-05T15:19:18.388Z,2.17
2023-11-05T15:23:24.038Z,2.30
2023-11-05T15:27:29.819Z,2.10
2023-11-05T15:31:35.909Z,1.93
2023-11-05T15:35:41.572Z,2.00
2023-11-05T15:39:47.251Z,2.00
2023-11-05T15:43:53.077Z,1.60
2023-11-05T15:47:58.769Z,2.17
2023-11-05T15:52:05.541Z,2.07
2023-11-05T15:56:11.215Z,2.10
2023-11-05T16:00:17.190Z,2.40
2023-11-05T16:04:22.766Z,2.90
2023-11-05T16:08:29.316Z,2.30
2023-11-05T16:12:35.318Z,2.37
2023-11-05T16:16:41.334Z,2.73
2023-11-05T16:20:46.985Z,2.27
2023-11-05T16:24:52.704Z,2.53
2023-11-05T16:28:58.405Z,2.37
2023-11-05T16:33:04.262Z,2.90
2023-11-05T16:37:12.733Z,2.90
2023-11-05T16:41:18.859Z,2.70
2023-11-05T16:45:24.406Z,3.27
2023-11-05T16:49:32.435Z,2.93
2023-11-05T16:53:38.145Z,3.50
2023-11-05T16:57:43.740Z,3.57
2023-11-05T17:01:51.178Z,3.50
